createdAt,value
2023-05-14T00:00:49.640Z,102306.57
2023-05-14T00:02:03.921Z,102305.14
2023-05-14T00:03:06.887Z,102305.08
2023-05-14T00:04:10.122Z,102303.74
2023-05-14T00:05:13.033Z,102302.37
2023-05-14T00:06:16.167Z,102303.25
2023-05-14T00:07:18.942Z,102303.61
2023-05-14T00:08:21.733Z,102304.91
2023-05-14T00:09:24.761Z,102305.19
2023-05-14T00:10:28.161Z,102306.14
2023-05-14T00:11:30.932Z,102302.42
2023-05-14T00:12:33.954Z,102301.18
2023-05-14T00:13:36.885Z,102302.09
2023-05-14T00:14:39.672Z,102304.79
2023-05-14T00:15:42.614Z,102306.03
2023-05-14T00:16:45.369Z,102308.17
2023-05-14T00:17:48.208Z,102304.68
2023-05-14T00:18:51.128Z,102301.83
2023-05-14T00:19:54.019Z,102303.65
2023-05-14T00:20:56.725Z,102306.35
2023-05-14T00:21:59.495Z,102306.89
2023-05-14T00:23:02.232Z,102308.02
2023-05-14T00:24:05.474Z,102307.80
2023-05-14T00:25:08.969Z,102306.46
2023-05-14T00:26:11.772Z,102305.96
2023-05-14T00:27:14.936Z,102307.15
2023-05-14T00:28:17.724Z,102303.99
2023-05-14T00:29:20.689Z,102304.17
2023-05-14T00:30:24.061Z,102304.50
2023-05-14T00:31:27.092Z,102305.64
2023-05-14T00:32:29.946Z,102303.30
2023-05-14T00:33:33.066Z,102307.48
2023-05-14T00:34:36.683Z,102305.78
2023-05-14T00:35:39.627Z,102305.20
2023-05-14T00:36:42.413Z,102304.65
2023-05-14T00:37:45.265Z,102305.74
2023-05-14T00:38:48.017Z,102305.08
2023-05-14T00:39:50.941Z,102304.91
2023-05-14T00:40:53.981Z,102302.70
2023-05-14T00:41:56.777Z,102301.40
2023-05-14T00:42:59.901Z,102301.71
2023-05-14T00:44:02.621Z,102295.92
2023-05-14T00:45:06.793Z,102299.23
2023-05-14T00:46:09.759Z,102298.35
2023-05-14T00:47:12.967Z,102297.44
2023-05-14T00:48:15.860Z,102299.07
2023-05-14T00:49:19.138Z,102301.84
2023-05-14T00:50:22.875Z,102299.73
2023-05-14T00:51:25.970Z,102298.87
2023-05-14T00:52:28.913Z,102297.79
2023-05-14T00:53:31.724Z,102300.85
2023-05-14T00:54:35.336Z,102293.52
2023-05-14T00:55:39.003Z,102298.23
2023-05-14T00:56:45.064Z,102298.60
2023-05-14T00:57:49.230Z,102297.48
2023-05-14T00:58:52.056Z,102302.08
2023-05-14T00:59:55.424Z,102298.71
2023-05-14T01:00:58.230Z,102297.30
2023-05-14T01:02:01.548Z,102294.41
2023-05-14T01:03:05.419Z,102297.35
2023-05-14T01:04:09.980Z,102297.52
2023-05-14T01:05:13.044Z,102291.19
2023-05-14T01:06:23.386Z,102294.02
2023-05-14T01:07:59.535Z,102288.38
2023-05-14T01:09:13.073Z,102289.30
2023-05-14T01:10:24.492Z,102291.23
2023-05-14T01:11:41.299Z,102296.48
2023-05-14T01:12:48.760Z,102297.19
2023-05-14T01:14:06.616Z,102292.72
2023-05-14T01:15:13.896Z,102292.30
2023-05-14T01:16:20.040Z,102293.25
2023-05-14T01:17:27.125Z,102293.48
2023-05-14T01:18:32.554Z,102295.63
2023-05-14T01:19:45.525Z,102294.38
2023-05-14T01:20:52.238Z,102290.94
2023-05-14T01:21:55.074Z,102290.43
2023-05-14T01:22:58.165Z,102288.27
2023-05-14T01:24:00.952Z,102291.09
2023-05-14T01:25:05.566Z,102290.33
2023-05-14T01:26:08.515Z,102293.34
2023-05-14T01:27:11.590Z,102290.01
2023-05-14T01:28:24.510Z,102288.33
2023-05-14T01:29:29.081Z,102286.10
2023-05-14T01:32:11.042Z,102285.43
2023-05-14T01:33:16.379Z,102282.72
2023-05-14T01:34:22.900Z,102282.28
2023-05-14T01:35:28.434Z,102283.89
2023-05-14T01:36:31.798Z,102286.05
2023-05-14T01:37:36.468Z,102283.00
2023-05-14T01:38:39.828Z,102285.79
2023-05-14T01:39:43.188Z,102284.05
2023-05-14T01:40:47.570Z,102288.71
2023-05-14T01:41:52.534Z,102284.45
2023-05-14T01:42:56.631Z,102286.91
2023-05-14T01:43:59.492Z,102286.98
2023-05-14T01:45:02.752Z,102283.75
2023-05-14T01:46:05.636Z,102284.95
2023-05-14T01:47:08.442Z,102284.93
2023-05-14T01:48:11.394Z,102285.80
2023-05-14T01:49:14.233Z,102281.66
2023-05-14T01:50:17.660Z,102282.49
2023-05-14T01:51:20.595Z,102281.60
2023-05-14T01:52:23.509Z,102277.83
2023-05-14T01:53:26.446Z,102279.55
2023-05-14T01:54:29.179Z,102277.02
2023-05-14T01:55:31.937Z,102278.23
2023-05-14T01:56:34.713Z,102278.23
2023-05-14T01:57:37.473Z,102275.07
2023-05-14T01:58:40.333Z,102280.02
2023-05-14T01:59:43.170Z,102278.05
2023-05-14T02:00:46.000Z,102275.27
2023-05-14T02:01:48.810Z,102275.16
2023-05-14T02:02:51.724Z,102277.95
2023-05-14T02:03:54.598Z,102282.17
2023-05-14T02:04:58.079Z,102278.73
2023-05-14T02:06:00.900Z,102281.23
2023-05-14T02:07:04.014Z,102280.91
2023-05-14T02:08:06.873Z,102281.48
2023-05-14T02:09:09.720Z,102280.08
2023-05-14T02:10:12.687Z,102280.81
2023-05-14T02:11:15.586Z,102279.77
2023-05-14T02:12:18.379Z,102279.46
2023-05-14T02:13:21.422Z,102279.27
2023-05-14T02:14:24.289Z,102278.46
2023-05-14T02:15:27.155Z,102275.67
2023-05-14T02:16:30.240Z,102275.72
2023-05-14T02:17:33.125Z,102274.22
2023-05-14T02:18:35.950Z,102274.40
2023-05-14T02:19:38.801Z,102272.20
2023-05-14T02:20:41.623Z,102274.54
2023-05-14T02:21:44.566Z,102274.41
2023-05-14T02:22:48.312Z,102274.35
2023-05-14T02:23:51.227Z,102274.95
2023-05-14T02:24:54.076Z,102273.08
2023-05-14T02:25:56.809Z,102271.80
2023-05-14T02:27:01.078Z,102269.79
2023-05-14T02:28:04.092Z,102269.79
2023-05-14T02:29:06.855Z,102268.47
2023-05-14T02:30:10.659Z,102265.15
2023-05-14T02:31:14.950Z,102265.64
2023-05-14T02:32:18.034Z,102268.23
2023-05-14T02:33:21.412Z,102267.69
2023-05-14T02:34:24.613Z,102266.79
2023-05-14T02:35:27.488Z,102269.30
2023-05-14T02:36:30.716Z,102266.49
2023-05-14T02:37:34.802Z,102266.86
2023-05-14T02:38:37.659Z,102264.63
2023-05-14T02:39:40.475Z,102266.05
2023-05-14T02:40:43.234Z,102262.27
2023-05-14T02:41:46.060Z,102260.60
2023-05-14T02:42:49.006Z,102260.13
2023-05-14T02:43:52.672Z,102260.95
2023-05-14T02:44:55.739Z,102258.88
2023-05-14T02:45:58.600Z,102258.92
2023-05-14T02:47:01.510Z,102258.45
2023-05-14T02:48:04.774Z,102257.17
2023-05-14T02:49:07.736Z,102263.17
2023-05-14T02:50:11.218Z,102262.52
2023-05-14T02:51:14.035Z,102263.62
2023-05-14T02:52:16.783Z,102264.65
2023-05-14T02:53:19.601Z,102261.18
2023-05-14T02:54:22.439Z,102259.81
2023-05-14T02:55:26.498Z,102260.73
2023-05-14T02:56:29.301Z,102260.11
2023-05-14T02:57:32.075Z,102260.10
2023-05-14T02:58:34.879Z,102257.15
2023-05-14T02:59:38.042Z,102255.98
2023-05-14T03:00:41.560Z,102255.86
2023-05-14T03:01:45.023Z,102253.51
2023-05-14T03:02:48.328Z,102254.12
2023-05-14T03:03:51.766Z,102253.18
2023-05-14T03:04:55.189Z,102252.34
2023-05-14T03:05:57.963Z,102253.80
2023-05-14T03:07:00.938Z,102251.42
2023-05-14T03:08:03.795Z,102252.55
2023-05-14T03:09:07.500Z,102251.84
2023-05-14T03:10:10.735Z,102253.87
2023-05-14T03:11:13.544Z,102253.25
2023-05-14T03:12:16.466Z,102255.60
2023-05-14T03:13:20.735Z,102256.02
2023-05-14T03:14:23.585Z,102258.36
2023-05-14T03:15:26.480Z,102252.29
2023-05-14T03:16:29.463Z,102256.41
2023-05-14T03:17:32.592Z,102254.17
2023-05-14T03:18:36.676Z,102254.28
2023-05-14T03:19:39.571Z,102250.42
2023-05-14T03:20:43.436Z,102253.55
2023-05-14T03:21:46.858Z,102251.30
2023-05-14T03:22:49.746Z,102252.27
2023-05-14T03:23:53.626Z,102250.05
2023-05-14T03:24:56.408Z,102247.51
2023-05-14T03:25:59.198Z,102248.31
2023-05-14T03:27:01.998Z,102247.52
2023-05-14T03:28:05.024Z,102248.80
2023-05-14T03:29:07.849Z,102247.88
2023-05-14T03:30:11.800Z,102249.04
2023-05-14T03:31:16.414Z,102247.16
2023-05-14T03:32:19.565Z,102246.56
2023-05-14T03:33:22.853Z,102246.02
2023-05-14T03:34:25.780Z,102244.66
2023-05-14T03:35:28.534Z,102244.21
2023-05-14T03:36:32.048Z,102246.44
2023-05-14T03:37:34.893Z,102245.75
2023-05-14T03:38:37.741Z,102246.15
2023-05-14T03:39:40.557Z,102248.09
2023-05-14T03:40:44.921Z,102241.14
2023-05-14T03:41:48.281Z,102239.65
2023-05-14T03:42:51.091Z,102236.23
2023-05-14T03:43:54.122Z,102239.68
2023-05-14T03:44:56.885Z,102237.80
2023-05-14T03:46:00.003Z,102240.05
2023-05-14T03:47:03.288Z,102242.36
2023-05-14T03:48:06.776Z,102242.62
2023-05-14T03:49:09.795Z,102245.85
2023-05-14T03:50:12.613Z,102245.85
2023-05-14T03:51:15.578Z,102245.71
2023-05-14T03:52:18.424Z,102243.52
2023-05-14T03:53:21.290Z,102245.02
2023-05-14T03:54:24.189Z,102243.33
2023-05-14T03:55:26.995Z,102242.45
2023-05-14T03:56:29.742Z,102242.20
2023-05-14T03:57:32.529Z,102238.81
2023-05-14T03:58:35.362Z,102239.00
2023-05-14T03:59:38.310Z,102240.06
2023-05-14T04:00:44.208Z,102238.38
2023-05-14T04:01:47.119Z,102237.55
2023-05-14T04:02:50.057Z,102240.86
2023-05-14T04:03:53.436Z,102237.17
2023-05-14T04:04:56.666Z,102233.21
2023-05-14T04:05:59.524Z,102232.34
2023-05-14T04:07:02.398Z,102233.11
2023-05-14T04:08:05.877Z,102234.06
2023-05-14T04:09:10.687Z,102234.15
2023-05-14T04:10:14.023Z,102233.17
2023-05-14T04:11:16.898Z,102232.65
2023-05-14T04:12:19.728Z,102233.52
2023-05-14T04:13:22.867Z,102232.19
2023-05-14T04:14:25.583Z,102234.20
2023-05-14T04:15:28.706Z,102232.23
2023-05-14T04:16:31.594Z,102231.70
2023-05-14T04:17:35.096Z,102232.80
2023-05-14T04:18:38.055Z,102236.36
2023-05-14T04:19:40.841Z,102240.38
2023-05-14T04:20:43.685Z,102236.45
2023-05-14T04:21:46.562Z,102239.56
2023-05-14T04:22:49.285Z,102239.15
2023-05-14T04:23:52.036Z,102238.96
2023-05-14T04:24:54.731Z,102237.77
2023-05-14T04:25:58.360Z,102237.45
2023-05-14T04:27:01.225Z,102239.02
2023-05-14T04:28:04.091Z,102240.91
2023-05-14T04:29:06.865Z,102237.40
2023-05-14T04:30:10.191Z,102238.33
2023-05-14T04:31:13.099Z,102238.49
2023-05-14T04:32:15.998Z,102240.88
2023-05-14T04:33:18.783Z,102238.25
2023-05-14T04:34:21.754Z,102234.67
2023-05-14T04:35:25.308Z,102237.05
2023-05-14T04:36:28.116Z,102235.44
2023-05-14T04:37:31.699Z,102234.19
2023-05-14T04:38:34.707Z,102235.44
2023-05-14T04:39:37.939Z,102233.06
2023-05-14T04:40:43.858Z,102232.56
2023-05-14T04:41:46.641Z,102232.58
2023-05-14T04:42:49.402Z,102231.05
2023-05-14T04:43:56.632Z,102232.33
2023-05-14T04:44:59.473Z,102228.07
2023-05-14T04:46:02.443Z,102230.83
2023-05-14T04:47:06.885Z,102228.19
2023-05-14T04:48:09.730Z,102228.61
2023-05-14T04:49:12.761Z,102230.63
2023-05-14T04:50:15.575Z,102223.84
2023-05-14T04:51:18.510Z,102228.21
2023-05-14T04:52:21.343Z,102225.40
2023-05-14T04:53:24.460Z,102222.15
2023-05-14T04:54:27.329Z,102223.66
2023-05-14T04:55:30.350Z,102223.14
2023-05-14T04:56:33.156Z,102223.66
2023-05-14T04:57:35.869Z,102222.69
2023-05-14T04:58:38.605Z,102220.91
2023-05-14T04:59:41.436Z,102219.82
2023-05-14T05:00:44.506Z,102218.63
2023-05-14T05:01:47.461Z,102216.55
2023-05-14T05:02:50.729Z,102214.65
2023-05-14T05:03:53.579Z,102216.17
2023-05-14T05:04:56.315Z,102211.53
2023-05-14T05:05:59.315Z,102213.15
2023-05-14T05:07:02.087Z,102212.69
2023-05-14T05:08:04.847Z,102211.39
2023-05-14T05:09:08.814Z,102209.44
2023-05-14T05:10:11.811Z,102211.58
2023-05-14T05:11:14.777Z,102213.30
2023-05-14T05:12:17.571Z,102209.21
2023-05-14T05:13:20.363Z,102210.34
2023-05-14T05:14:23.169Z,102208.66
2023-05-14T05:15:26.741Z,102210.08
2023-05-14T05:16:29.912Z,102204.45
2023-05-14T05:17:32.989Z,102204.48
2023-05-14T05:18:35.924Z,102201.77
2023-05-14T05:19:43.805Z,102199.76
2023-05-14T05:20:47.412Z,102199.23
2023-05-14T05:21:51.176Z,102200.04
2023-05-14T05:22:54.029Z,102197.65
2023-05-14T05:23:56.851Z,102197.45
2023-05-14T05:24:59.906Z,102202.55
2023-05-14T05:26:02.620Z,102196.36
2023-05-14T05:27:06.107Z,102195.13
2023-05-14T05:28:08.952Z,102199.00
2023-05-14T05:29:11.872Z,102195.52
2023-05-14T05:30:14.647Z,102198.93
2023-05-14T05:31:19.685Z,102196.45
2023-05-14T05:32:23.237Z,102194.87
2023-05-14T05:33:26.080Z,102194.84
2023-05-14T05:34:28.915Z,102191.38
2023-05-14T05:35:31.615Z,102193.94
2023-05-14T05:36:34.489Z,102192.64
2023-05-14T05:37:37.216Z,102191.25
2023-05-14T05:38:39.970Z,102191.84
2023-05-14T05:39:42.830Z,102191.60
2023-05-14T05:40:45.549Z,102191.73
2023-05-14T05:41:48.360Z,102188.15
2023-05-14T05:42:51.152Z,102192.14
2023-05-14T05:43:53.994Z,102189.85
2023-05-14T05:44:56.849Z,102193.73
2023-05-14T05:46:01.620Z,102192.83
2023-05-14T05:47:04.839Z,102194.88
2023-05-14T05:48:07.828Z,102191.86
2023-05-14T05:49:10.620Z,102193.85
2023-05-14T05:50:13.556Z,102195.16
2023-05-14T05:51:16.439Z,102192.61
2023-05-14T05:52:19.511Z,102194.64
2023-05-14T05:53:22.556Z,102193.95
2023-05-14T05:54:25.712Z,102193.86
2023-05-14T05:55:29.672Z,102190.99
2023-05-14T05:56:32.497Z,102195.30
2023-05-14T05:57:35.341Z,102190.44
2023-05-14T05:58:38.787Z,102192.52
2023-05-14T05:59:41.577Z,102190.06
2023-05-14T06:00:44.652Z,102191.23
2023-05-14T06:01:48.211Z,102193.27
2023-05-14T06:02:51.117Z,102191.21
2023-05-14T06:03:53.897Z,102189.16
2023-05-14T06:04:56.766Z,102188.48
2023-05-14T06:05:59.675Z,102189.71
2023-05-14T06:07:02.516Z,102191.02
2023-05-14T06:08:05.795Z,102190.23
2023-05-14T06:09:09.227Z,102185.46
2023-05-14T06:10:12.022Z,102188.13
2023-05-14T06:11:15.415Z,102187.80
2023-05-14T06:12:18.208Z,102185.25
2023-05-14T06:13:20.990Z,102187.06
2023-05-14T06:14:23.770Z,102186.20
2023-05-14T06:15:26.607Z,102185.42
2023-05-14T06:16:31.664Z,102182.26
2023-05-14T06:17:34.549Z,102181.26
2023-05-14T06:18:37.447Z,102179.29
2023-05-14T06:19:40.372Z,102181.73
2023-05-14T06:20:43.287Z,102179.13
2023-05-14T06:21:46.125Z,102180.86
2023-05-14T06:22:48.976Z,102180.84
2023-05-14T06:23:51.732Z,102179.26
2023-05-14T06:24:54.740Z,102178.01
2023-05-14T06:25:57.609Z,102179.60
2023-05-14T06:27:00.380Z,102179.20
2023-05-14T06:28:03.328Z,102174.27
2023-05-14T06:29:06.178Z,102173.60
2023-05-14T06:30:10.443Z,102177.89
2023-05-14T06:31:13.791Z,102178.09
2023-05-14T06:32:16.924Z,102178.10
2023-05-14T06:33:23.415Z,102176.92
2023-05-14T06:34:26.347Z,102177.13
2023-05-14T06:35:29.363Z,102175.95
2023-05-14T06:36:32.185Z,102175.18
2023-05-14T06:37:34.956Z,102175.55
2023-05-14T06:38:37.893Z,102176.61
2023-05-14T06:39:46.517Z,102175.64
2023-05-14T06:40:49.390Z,102175.23
2023-05-14T06:41:52.170Z,102175.75
2023-05-14T06:42:55.079Z,102173.45
2023-05-14T06:43:57.873Z,102175.55
2023-05-14T06:45:00.759Z,102173.21
2023-05-14T06:46:03.617Z,102171.86
2023-05-14T06:47:08.619Z,102172.84
2023-05-14T06:48:11.774Z,102173.30
2023-05-14T06:49:14.895Z,102170.79
2023-05-14T06:50:18.065Z,102169.02
2023-05-14T06:51:20.968Z,102171.31
2023-05-14T06:52:23.772Z,102169.91
2023-05-14T06:53:26.730Z,102169.16
2023-05-14T06:54:30.159Z,102170.37
2023-05-14T06:55:32.989Z,102169.23
2023-05-14T06:56:35.810Z,102169.79
2023-05-14T06:57:40.644Z,102172.36
2023-05-14T06:58:43.752Z,102171.39
2023-05-14T06:59:46.629Z,102170.81
2023-05-14T07:00:49.525Z,102169.55
2023-05-14T07:01:52.401Z,102170.45
2023-05-14T07:02:57.671Z,102166.29
2023-05-14T07:04:00.738Z,102165.45
2023-05-14T07:05:03.630Z,102168.73
2023-05-14T07:06:06.851Z,102169.95
2023-05-14T07:07:13.527Z,102164.96
2023-05-14T07:08:16.315Z,102168.79
2023-05-14T07:09:19.123Z,102164.23
2023-05-14T07:10:22.376Z,102165.80
2023-05-14T07:11:25.529Z,102165.24
2023-05-14T07:12:28.343Z,102166.91
2023-05-14T07:13:31.166Z,102161.80
2023-05-14T07:14:34.394Z,102162.02
2023-05-14T07:15:37.214Z,102163.34
2023-05-14T07:16:41.678Z,102162.60
2023-05-14T07:17:45.214Z,102159.27
2023-05-14T07:18:48.053Z,102162.06
2023-05-14T07:19:51.374Z,102160.74
2023-05-14T07:20:54.115Z,102160.41
2023-05-14T07:21:57.899Z,102159.77
2023-05-14T07:23:00.797Z,102160.64
2023-05-14T07:24:04.036Z,102159.63
2023-05-14T07:25:07.769Z,102162.03
2023-05-14T07:26:10.642Z,102160.77
2023-05-14T07:27:13.442Z,102158.39
2023-05-14T07:28:16.273Z,102159.53
2023-05-14T07:29:19.005Z,102157.59
2023-05-14T07:30:21.873Z,102158.16
2023-05-14T07:31:25.054Z,102157.77
2023-05-14T07:32:27.895Z,102157.54
2023-05-14T07:33:30.982Z,102157.35
2023-05-14T07:34:33.903Z,102155.83
2023-05-14T07:35:36.739Z,102153.52
2023-05-14T07:36:39.886Z,102150.98
2023-05-14T07:37:42.967Z,102149.70
2023-05-14T07:38:45.982Z,102152.67
2023-05-14T07:39:49.283Z,102152.06
2023-05-14T07:40:52.300Z,102149.44
2023-05-14T07:41:55.374Z,102152.02
2023-05-14T07:42:58.192Z,102151.55
2023-05-14T07:44:01.277Z,102148.54
2023-05-14T07:45:04.765Z,102149.00
2023-05-14T07:46:07.653Z,102148.94
2023-05-14T07:47:11.072Z,102147.31
2023-05-14T07:48:14.457Z,102146.95
2023-05-14T07:49:17.457Z,102146.80
2023-05-14T07:50:20.868Z,102145.70
2023-05-14T07:51:24.121Z,102147.67
2023-05-14T07:52:26.965Z,102145.81
2023-05-14T07:53:29.813Z,102145.04
2023-05-14T07:54:32.695Z,102146.98
2023-05-14T07:55:35.528Z,102148.08
2023-05-14T07:56:38.305Z,102145.30
2023-05-14T07:57:41.267Z,102145.02
2023-05-14T07:58:44.098Z,102152.39
2023-05-14T07:59:48.457Z,102149.41
2023-05-14T08:00:51.583Z,102147.70
2023-05-14T08:01:54.536Z,102145.84
2023-05-14T08:02:57.635Z,102146.52
2023-05-14T08:04:01.075Z,102142.90
2023-05-14T08:05:04.703Z,102142.02
2023-05-14T08:06:07.587Z,102140.20
2023-05-14T08:07:11.224Z,102138.00
2023-05-14T08:08:13.989Z,102143.35
2023-05-14T08:09:17.053Z,102140.77
2023-05-14T08:10:19.846Z,102140.95
2023-05-14T08:11:22.934Z,102137.78
2023-05-14T08:12:26.730Z,102134.02
2023-05-14T08:13:29.519Z,102134.69
2023-05-14T08:14:32.472Z,102136.11
2023-05-14T08:15:35.553Z,102135.31
2023-05-14T08:16:38.871Z,102137.14
2023-05-14T08:17:41.833Z,102136.89
2023-05-14T08:18:44.704Z,102139.15
2023-05-14T08:19:47.738Z,102135.38
2023-05-14T08:20:51.377Z,102134.02
2023-05-14T08:21:54.570Z,102134.34
2023-05-14T08:23:00.434Z,102131.80
2023-05-14T08:24:03.624Z,102134.59
2023-05-14T08:25:07.770Z,102135.16
2023-05-14T08:26:11.141Z,102135.13
2023-05-14T08:27:13.973Z,102131.41
2023-05-14T08:28:16.734Z,102132.77
2023-05-14T08:29:19.587Z,102133.97
2023-05-14T08:30:23.040Z,102132.04
2023-05-14T08:31:26.180Z,102131.95
2023-05-14T08:32:29.671Z,102133.38
2023-05-14T08:33:32.593Z,102135.97
2023-05-14T08:34:35.361Z,102132.66
2023-05-14T08:35:38.147Z,102131.14
2023-05-14T08:36:40.877Z,102130.48
2023-05-14T08:37:43.691Z,102131.79
2023-05-14T08:38:46.400Z,102129.34
2023-05-14T08:39:49.184Z,102131.66
2023-05-14T08:40:58.793Z,102129.77
2023-05-14T08:42:06.230Z,102124.96
2023-05-14T08:43:11.649Z,102124.74
2023-05-14T08:44:18.726Z,102123.48
2023-05-14T08:45:26.044Z,102123.73
2023-05-14T08:46:31.738Z,102123.76
2023-05-14T08:47:34.851Z,102121.18
2023-05-14T08:48:40.718Z,102123.12
2023-05-14T08:49:47.225Z,102122.80
2023-05-14T08:50:50.336Z,102116.58
2023-05-14T08:51:53.476Z,102116.84
2023-05-14T08:52:56.261Z,102114.44
2023-05-14T08:54:02.233Z,102108.18
2023-05-14T08:55:06.591Z,102109.68
2023-05-14T08:56:09.823Z,102105.41
2023-05-14T08:57:13.134Z,102105.40
2023-05-14T08:58:15.987Z,102102.88
2023-05-14T08:59:19.309Z,102101.15
2023-05-14T09:00:23.102Z,102100.74
2023-05-14T09:01:26.305Z,102102.58
2023-05-14T09:02:31.336Z,102102.01
2023-05-14T09:03:35.975Z,102102.76
2023-05-14T09:04:39.813Z,102103.05
2023-05-14T09:05:43.092Z,102102.48
2023-05-14T09:06:49.445Z,102097.83
2023-05-14T09:07:52.369Z,102094.57
2023-05-14T09:08:56.138Z,102095.16
2023-05-14T09:09:59.581Z,102094.74
2023-05-14T09:11:02.863Z,102099.61
2023-05-14T09:12:06.299Z,102094.34
2023-05-14T09:13:10.225Z,102094.41
2023-05-14T09:14:13.088Z,102095.48
2023-05-14T09:15:16.142Z,102092.85
2023-05-14T09:16:20.688Z,102090.86
2023-05-14T09:17:26.819Z,102096.47
2023-05-14T09:18:29.736Z,102088.49
2023-05-14T09:19:32.862Z,102092.48
2023-05-14T09:20:35.942Z,102091.55
2023-05-14T09:21:38.748Z,102091.98
2023-05-14T09:22:42.037Z,102088.95
2023-05-14T09:23:45.376Z,102091.43
2023-05-14T09:25:02.741Z,102089.53
2023-05-14T09:26:06.053Z,102087.98
2023-05-14T09:27:10.565Z,102089.41
2023-05-14T09:28:17.281Z,102088.39
2023-05-14T09:29:20.337Z,102089.45
2023-05-14T09:30:24.905Z,102089.08
2023-05-14T09:31:32.118Z,102086.98
2023-05-14T09:32:40.322Z,102086.20
2023-05-14T09:33:43.819Z,102086.52
2023-05-14T09:34:46.583Z,102085.52
2023-05-14T09:35:49.363Z,102085.70
2023-05-14T09:37:03.649Z,102083.14
2023-05-14T09:38:06.444Z,102077.09
2023-05-14T09:39:09.735Z,102081.91
2023-05-14T09:40:13.932Z,102078.61
2023-05-14T09:41:17.007Z,102075.15
2023-05-14T09:42:20.114Z,102076.33
2023-05-14T09:43:22.900Z,102079.00
2023-05-14T09:44:26.201Z,102076.18
2023-05-14T09:45:29.352Z,102074.00
2023-05-14T09:46:32.189Z,102074.22
2023-05-14T09:47:36.042Z,102070.45
2023-05-14T09:48:38.978Z,102071.04
2023-05-14T09:49:41.952Z,102070.92
2023-05-14T09:50:46.606Z,102066.11
2023-05-14T09:51:50.411Z,102066.26
2023-05-14T09:52:55.746Z,102066.92
2023-05-14T09:53:58.821Z,102065.19
2023-05-14T09:55:02.404Z,102064.27
2023-05-14T09:56:05.552Z,102063.90
2023-05-14T09:57:08.436Z,102061.98
2023-05-14T09:58:11.660Z,102063.54
2023-05-14T09:59:14.994Z,102059.02
2023-05-14T10:00:18.090Z,102058.06
2023-05-14T10:01:22.470Z,102060.08
2023-05-14T10:02:27.401Z,102056.48
2023-05-14T10:03:30.594Z,102053.39
2023-05-14T10:04:34.200Z,102051.59
2023-05-14T10:05:39.998Z,102050.39
2023-05-14T10:06:46.547Z,102050.67
2023-05-14T10:07:52.294Z,102051.88
2023-05-14T10:08:57.032Z,102048.35
2023-05-14T10:10:03.099Z,102048.02
2023-05-14T10:11:13.255Z,102044.16
2023-05-14T10:12:20.682Z,102040.83
2023-05-14T10:13:39.248Z,102044.21
2023-05-14T10:14:49.834Z,102040.34
2023-05-14T10:16:00.684Z,102043.67
2023-05-14T10:17:06.016Z,102042.45
2023-05-14T10:18:12.479Z,102043.63
2023-05-14T10:19:17.877Z,102043.30
2023-05-14T10:20:22.847Z,102041.16
2023-05-14T10:21:28.616Z,102041.02
2023-05-14T10:22:34.953Z,102043.82
2023-05-14T10:23:38.646Z,102040.80
2023-05-14T10:24:41.972Z,102038.63
2023-05-14T10:25:45.615Z,102041.84
2023-05-14T10:26:48.969Z,102039.29
2023-05-14T10:27:51.863Z,102042.12
2023-05-14T10:28:55.999Z,102041.50
2023-05-14T10:29:58.772Z,102040.24
2023-05-14T10:31:01.837Z,102043.48
2023-05-14T10:32:06.807Z,102042.00
2023-05-14T10:33:13.284Z,102042.31
2023-05-14T10:34:37.959Z,102038.44
2023-05-14T10:36:00.810Z,102041.77
2023-05-14T10:37:16.369Z,102039.56
2023-05-14T10:38:23.271Z,102041.66
2023-05-14T10:39:47.587Z,102040.80
2023-05-14T10:40:53.500Z,102035.91
2023-05-14T10:41:56.982Z,102040.06
2023-05-14T10:42:59.874Z,102037.20
2023-05-14T10:44:09.493Z,102035.27
2023-05-14T10:45:14.841Z,102035.52
2023-05-14T10:46:18.015Z,102032.00
2023-05-14T10:47:21.974Z,102034.67
2023-05-14T10:48:26.004Z,102032.41
2023-05-14T10:49:42.424Z,102029.52
2023-05-14T10:50:48.284Z,102032.00
2023-05-14T10:51:53.444Z,102032.56
2023-05-14T10:52:57.135Z,102028.60
2023-05-14T10:54:01.643Z,102027.83
2023-05-14T10:55:10.235Z,102022.48
2023-05-14T10:56:14.608Z,102023.23
2023-05-14T10:57:19.006Z,102019.58
2023-05-14T10:58:22.341Z,102017.06
2023-05-14T10:59:28.448Z,102017.14
2023-05-14T11:00:34.145Z,102013.23
2023-05-14T11:01:36.954Z,102012.66
2023-05-14T11:02:41.255Z,102010.79
2023-05-14T11:03:46.213Z,102008.31
2023-05-14T11:04:59.443Z,102009.30
2023-05-14T11:06:03.736Z,102011.61
2023-05-14T11:07:06.695Z,102012.08
2023-05-14T11:08:10.548Z,102008.44
2023-05-14T11:09:17.557Z,102011.51
2023-05-14T11:10:22.054Z,102007.03
2023-05-14T11:11:26.222Z,102012.10
2023-05-14T11:12:29.639Z,102006.23
2023-05-14T11:13:34.418Z,102008.46
2023-05-14T11:14:37.217Z,102011.42
2023-05-14T11:15:46.997Z,102010.05
2023-05-14T11:16:50.470Z,102008.99
2023-05-14T11:17:54.405Z,102011.52
2023-05-14T11:19:04.864Z,102005.15
2023-05-14T11:20:09.789Z,102002.31
2023-05-14T11:21:13.097Z,102004.21
2023-05-14T11:22:15.943Z,102004.42
2023-05-14T11:23:18.872Z,102006.89
2023-05-14T11:24:21.637Z,102005.45
2023-05-14T11:25:25.899Z,102006.11
2023-05-14T11:26:28.797Z,102008.60
2023-05-14T11:27:34.395Z,102008.86
2023-05-14T11:28:38.778Z,102008.85
2023-05-14T11:29:46.525Z,102004.20
2023-05-14T11:30:50.722Z,101998.21
2023-05-14T11:31:54.490Z,101995.05
2023-05-14T11:32:58.758Z,101993.10
2023-05-14T11:34:05.026Z,101987.48
2023-05-14T11:35:08.397Z,101980.71
2023-05-14T11:36:12.564Z,101978.35
2023-05-14T11:37:16.546Z,101974.33
2023-05-14T11:38:21.180Z,101970.30
2023-05-14T11:39:23.972Z,101977.30
2023-05-14T11:40:26.955Z,101982.33
2023-05-14T11:41:31.061Z,101983.64
2023-05-14T11:42:33.841Z,101979.27
2023-05-14T11:43:36.751Z,101976.89
2023-05-14T11:44:39.632Z,101975.52
2023-05-14T11:45:42.444Z,101978.06
2023-05-14T11:46:54.692Z,101973.35
2023-05-14T11:47:57.572Z,101970.77
2023-05-14T11:49:00.369Z,101968.36
2023-05-14T11:50:03.733Z,101963.29
2023-05-14T11:51:06.877Z,101962.10
2023-05-14T11:52:11.744Z,101956.15
2023-05-14T11:53:25.808Z,101950.55
2023-05-14T11:54:29.391Z,101952.48
2023-05-14T11:55:35.984Z,101959.92
2023-05-14T11:56:38.762Z,101962.15
2023-05-14T11:57:42.187Z,101962.38
2023-05-14T11:58:55.812Z,101961.63
2023-05-14T11:59:58.710Z,101958.44
2023-05-14T12:01:01.690Z,101967.13
2023-05-14T12:02:05.627Z,101965.59
2023-05-14T12:03:10.172Z,101961.58
2023-05-14T12:04:14.246Z,101961.41
2023-05-14T12:05:17.203Z,101961.88
2023-05-14T12:06:19.959Z,101963.11
2023-05-14T12:07:22.802Z,101964.93
2023-05-14T12:08:30.680Z,101964.63
2023-05-14T12:09:36.849Z,101962.77
2023-05-14T12:10:42.773Z,101958.92
2023-05-14T12:11:46.606Z,101962.88